DAL1305 KLGA-KMCO
Flight info
| Callsign | DAL1305 |
|---|---|
| Flight time | 2h 15m |
| Altitude | 34000 |
| Route | DCT WHITE Q409 CRPLR Q85 LPERD SNFLD3 |
| Aircraft | A32N/M-V/N |
Departure
| Time | 2026-05-04 18:13 |
|---|---|
| Airport | LaGuardia Airport (KLGA) |
Arrival
| Time | 2026-05-04 20:29 |
|---|---|
| Airport | Orlando International Airport (KMCO) |
| Time | Latitude | Longitude | Altitude | Speed | Heading |
|---|---|---|---|---|---|
| 2026-05-04 17:53 | 40.77162 | -73.86197 | 19 ft | 0 kts | 313° |
| 2026-05-04 18:06 | 40.77160 | -73.86194 | 19 ft | 0 kts | 316° |
| 2026-05-04 18:06 | 40.77156 | -73.86189 | 28 ft | 1 kts | 316° |
| 2026-05-04 18:06 | 40.77151 | -73.86182 | 28 ft | 1 kts | 320° |
| 2026-05-04 18:07 | 40.77145 | -73.86176 | 28 ft | 1 kts | 328° |
| 2026-05-04 18:07 | 40.77136 | -73.86170 | 15 ft | 1 kts | 341° |
| 2026-05-04 18:07 | 40.77127 | -73.86166 | 19 ft | 1 kts | 356° |
| 2026-05-04 18:07 | 40.77117 | -73.86166 | 21 ft | 1 kts | 9° |
| 2026-05-04 18:08 | 40.77107 | -73.86168 | 21 ft | 1 kts | 15° |
| 2026-05-04 18:08 | 40.77097 | -73.86172 | 19 ft | 1 kts | 22° |
| 2026-05-04 18:08 | 40.77094 | -73.86174 | 19 ft | 0 kts | 24° |
| 2026-05-04 18:10 | 40.77103 | -73.86165 | 21 ft | 3 kts | 44° |
| 2026-05-04 18:10 | 40.77133 | -73.86119 | 19 ft | 10 kts | 47° |
| 2026-05-04 18:10 | 40.77159 | -73.86009 | 12 ft | 15 kts | 110° |
| 2026-05-04 18:10 | 40.77109 | -73.85900 | 12 ft | 12 kts | 118° |
| 2026-05-04 18:11 | 40.77140 | -73.85815 | 12 ft | 9 kts | 46° |
| 2026-05-04 18:11 | 40.77142 | -73.85812 | 12 ft | 0 kts | 46° |
| 2026-05-04 18:12 | 40.77149 | -73.85801 | 13 ft | 4 kts | 47° |
| 2026-05-04 18:12 | 40.77182 | -73.85765 | 15 ft | 8 kts | 29° |
| 2026-05-04 18:12 | 40.77233 | -73.85773 | 16 ft | 8 kts | 318° |
| 2026-05-04 18:12 | 40.77294 | -73.85894 | 15 ft | 42 kts | 301° |
| 2026-05-04 18:13 | 40.77617 | -73.86570 | 14 ft | 127 kts | 300° |
| 2026-05-04 18:13 | 40.78186 | -73.87708 | 356 ft | 165 kts | 298° |
| 2026-05-04 18:13 | 40.79094 | -73.90710 | 2093 ft | 177 kts | 264° |
| 2026-05-04 18:14 | 40.78844 | -73.92403 | 3004 ft | 199 kts | 258° |
| 2026-05-04 18:14 | 40.78972 | -73.94339 | 3928 ft | 225 kts | 281° |
| 2026-05-04 18:14 | 40.78990 | -73.96440 | 4816 ft | 240 kts | 256° |
| 2026-05-04 18:15 | 40.76815 | -73.99859 | 7043 ft | 259 kts | 216° |
| 2026-05-04 18:15 | 40.73951 | -74.01379 | 8606 ft | 275 kts | 201° |
| 2026-05-04 18:15 | 40.71447 | -74.02214 | 9864 ft | 285 kts | 199° |
| 2026-05-04 18:16 | 40.70152 | -74.02609 | 10413 ft | 291 kts | 198° |
| 2026-05-04 18:16 | 40.68107 | -74.03243 | 10845 ft | 313 kts | 198° |
| 2026-05-04 18:16 | 40.65163 | -74.04183 | 11459 ft | 337 kts | 198° |
| 2026-05-04 18:17 | 40.61309 | -74.05427 | 12939 ft | 343 kts | 199° |
| 2026-05-04 18:17 | 40.58996 | -74.06179 | 13807 ft | 348 kts | 199° |
| 2026-05-04 18:17 | 40.54230 | -74.07735 | 15284 ft | 357 kts | 199° |
| 2026-05-04 18:18 | 40.51792 | -74.08530 | 16006 ft | 363 kts | 199° |
| 2026-05-04 18:18 | 40.49346 | -74.09328 | 16730 ft | 367 kts | 199° |
| 2026-05-04 18:18 | 40.46813 | -74.10156 | 17453 ft | 372 kts | 199° |
| 2026-05-04 18:18 | 40.44299 | -74.10978 | 18158 ft | 377 kts | 199° |
| 2026-05-04 18:19 | 40.39177 | -74.12651 | 19435 ft | 385 kts | 199° |
| 2026-05-04 18:19 | 40.36552 | -74.13505 | 20052 ft | 389 kts | 199° |
| 2026-05-04 18:19 | 40.33907 | -74.14366 | 20664 ft | 394 kts | 199° |
| 2026-05-04 18:20 | 40.31228 | -74.15237 | 21282 ft | 398 kts | 199° |
| 2026-05-04 18:20 | 40.28546 | -74.16109 | 21898 ft | 401 kts | 199° |
| 2026-05-04 18:20 | 40.25814 | -74.16995 | 22495 ft | 406 kts | 199° |
| 2026-05-04 18:20 | 40.23084 | -74.17882 | 23048 ft | 411 kts | 199° |
| 2026-05-04 18:21 | 40.20286 | -74.18791 | 23596 ft | 416 kts | 199° |
| 2026-05-04 18:21 | 40.17446 | -74.19711 | 24114 ft | 419 kts | 199° |
| 2026-05-04 18:21 | 40.14638 | -74.20621 | 24609 ft | 422 kts | 199° |
| 2026-05-04 18:21 | 40.11763 | -74.21552 | 25108 ft | 425 kts | 199° |
| 2026-05-04 18:22 | 40.08862 | -74.22490 | 25580 ft | 428 kts | 199° |
| 2026-05-04 18:22 | 40.05980 | -74.23421 | 26055 ft | 432 kts | 199° |
| 2026-05-04 18:22 | 40.03054 | -74.24422 | 26473 ft | 433 kts | 202° |
| 2026-05-04 18:22 | 40.00265 | -74.25804 | 26912 ft | 432 kts | 210° |
| 2026-05-04 18:23 | 39.97607 | -74.27638 | 27361 ft | 429 kts | 217° |
| 2026-05-04 18:23 | 39.95089 | -74.29740 | 27786 ft | 431 kts | 218° |
| 2026-05-04 18:23 | 39.92544 | -74.31865 | 28208 ft | 434 kts | 218° |
| 2026-05-04 18:23 | 39.90003 | -74.33976 | 28611 ft | 437 kts | 218° |
| 2026-05-04 18:24 | 39.87445 | -74.36096 | 28998 ft | 440 kts | 218° |
| 2026-05-04 18:24 | 39.84847 | -74.38244 | 29416 ft | 442 kts | 218° |
| 2026-05-04 18:24 | 39.82260 | -74.40381 | 29742 ft | 445 kts | 218° |
| 2026-05-04 18:24 | 39.79622 | -74.42557 | 30111 ft | 448 kts | 218° |
| 2026-05-04 18:25 | 39.77005 | -74.44713 | 30452 ft | 450 kts | 218° |
| 2026-05-04 18:25 | 39.74341 | -74.46909 | 30784 ft | 452 kts | 218° |
| 2026-05-04 18:25 | 39.71669 | -74.49106 | 31129 ft | 454 kts | 218° |
| 2026-05-04 18:25 | 39.69017 | -74.51284 | 31543 ft | 454 kts | 218° |
| 2026-05-04 18:26 | 39.66337 | -74.53482 | 31994 ft | 453 kts | 218° |
| 2026-05-04 18:26 | 39.63703 | -74.55642 | 32432 ft | 452 kts | 218° |
| 2026-05-04 18:26 | 39.61032 | -74.57831 | 32866 ft | 451 kts | 217° |
| 2026-05-04 18:26 | 39.58400 | -74.59987 | 33291 ft | 450 kts | 217° |
| 2026-05-04 18:27 | 39.55748 | -74.62155 | 33699 ft | 449 kts | 217° |
| 2026-05-04 18:27 | 39.53121 | -74.64303 | 33957 ft | 448 kts | 217° |
| 2026-05-04 18:27 | 39.47868 | -74.68590 | 33981 ft | 446 kts | 217° |
| 2026-05-04 18:28 | 39.42633 | -74.72857 | 33981 ft | 445 kts | 217° |
| 2026-05-04 18:28 | 39.37418 | -74.77101 | 33989 ft | 445 kts | 217° |
| 2026-05-04 18:29 | 39.32179 | -74.81355 | 33988 ft | 445 kts | 217° |
| 2026-05-04 18:29 | 39.26948 | -74.85596 | 34001 ft | 445 kts | 217° |
| 2026-05-04 18:30 | 39.19068 | -74.91969 | 34021 ft | 444 kts | 217° |
| 2026-05-04 18:31 | 39.13854 | -74.96177 | 34022 ft | 443 kts | 217° |
| 2026-05-04 18:31 | 39.08627 | -75.00388 | 34005 ft | 443 kts | 217° |
| 2026-05-04 18:32 | 39.03420 | -75.04575 | 34007 ft | 442 kts | 218° |
| 2026-05-04 18:32 | 38.98187 | -75.08777 | 33972 ft | 442 kts | 217° |
| 2026-05-04 18:33 | 38.92980 | -75.12950 | 33976 ft | 442 kts | 217° |
| 2026-05-04 18:33 | 38.87740 | -75.17142 | 33983 ft | 442 kts | 217° |
| 2026-05-04 18:34 | 38.82525 | -75.21305 | 33983 ft | 442 kts | 218° |
| 2026-05-04 18:34 | 38.77302 | -75.25469 | 33986 ft | 442 kts | 218° |
| 2026-05-04 18:35 | 38.72086 | -75.29620 | 33987 ft | 442 kts | 218° |
| 2026-05-04 18:35 | 38.66861 | -75.33771 | 33990 ft | 442 kts | 218° |
| 2026-05-04 18:36 | 38.61661 | -75.37894 | 33996 ft | 442 kts | 218° |
| 2026-05-04 18:36 | 38.56436 | -75.42030 | 34001 ft | 442 kts | 218° |
| 2026-05-04 18:37 | 38.51210 | -75.46160 | 33997 ft | 442 kts | 218° |
| 2026-05-04 18:37 | 38.45963 | -75.50299 | 34005 ft | 443 kts | 218° |
| 2026-05-04 18:38 | 38.40734 | -75.54416 | 34007 ft | 442 kts | 218° |
| 2026-05-04 18:38 | 38.35498 | -75.58532 | 34007 ft | 442 kts | 218° |
| 2026-05-04 18:39 | 38.30270 | -75.62635 | 34008 ft | 442 kts | 218° |
| 2026-05-04 18:39 | 38.25029 | -75.66741 | 34010 ft | 442 kts | 218° |
| 2026-05-04 18:40 | 38.19800 | -75.70831 | 34016 ft | 441 kts | 218° |
| 2026-05-04 18:40 | 38.14578 | -75.74908 | 34014 ft | 441 kts | 218° |
| 2026-05-04 18:41 | 38.09357 | -75.78977 | 33997 ft | 441 kts | 218° |
| 2026-05-04 18:41 | 38.04124 | -75.83048 | 34013 ft | 440 kts | 218° |
| 2026-05-04 18:42 | 37.98955 | -75.87061 | 34009 ft | 434 kts | 218° |
| 2026-05-04 18:42 | 37.93776 | -75.91079 | 34021 ft | 435 kts | 218° |
| 2026-05-04 18:43 | 37.88623 | -75.95070 | 34038 ft | 435 kts | 218° |
| 2026-05-04 18:43 | 37.83458 | -75.99063 | 34038 ft | 435 kts | 218° |
| 2026-05-04 18:44 | 37.78316 | -76.03028 | 34035 ft | 428 kts | 217° |
| 2026-05-04 18:44 | 37.73234 | -76.06945 | 34034 ft | 430 kts | 217° |
| 2026-05-04 18:45 | 37.68128 | -76.10875 | 34028 ft | 430 kts | 217° |
| 2026-05-04 18:45 | 37.62995 | -76.14819 | 34017 ft | 430 kts | 217° |
| 2026-05-04 18:46 | 37.57925 | -76.18755 | 34018 ft | 431 kts | 218° |
| 2026-05-04 18:46 | 37.52851 | -76.22863 | 34011 ft | 431 kts | 219° |
| 2026-05-04 18:47 | 37.47828 | -76.26932 | 34013 ft | 431 kts | 219° |
| 2026-05-04 18:47 | 37.42786 | -76.30995 | 34013 ft | 431 kts | 219° |
| 2026-05-04 18:48 | 37.37733 | -76.35055 | 34009 ft | 428 kts | 218° |
| 2026-05-04 18:48 | 37.32749 | -76.39052 | 34007 ft | 426 kts | 219° |
| 2026-05-04 18:49 | 37.27764 | -76.43048 | 34010 ft | 427 kts | 218° |
| 2026-05-04 18:49 | 37.22742 | -76.47064 | 34026 ft | 427 kts | 218° |
| 2026-05-04 18:50 | 37.17726 | -76.51067 | 34002 ft | 427 kts | 219° |
| 2026-05-04 18:50 | 37.12786 | -76.54992 | 34027 ft | 419 kts | 219° |
| 2026-05-04 18:51 | 37.07839 | -76.58931 | 34018 ft | 421 kts | 219° |
| 2026-05-04 18:51 | 37.02914 | -76.62843 | 34018 ft | 421 kts | 219° |
| 2026-05-04 18:52 | 36.97955 | -76.66775 | 34017 ft | 421 kts | 219° |
| 2026-05-04 18:52 | 36.93042 | -76.70654 | 34015 ft | 414 kts | 220° |
| 2026-05-04 18:53 | 36.88175 | -76.74501 | 34031 ft | 415 kts | 220° |
| 2026-05-04 18:53 | 36.83286 | -76.78359 | 34034 ft | 415 kts | 220° |
| 2026-05-04 18:54 | 36.78397 | -76.82206 | 34035 ft | 415 kts | 220° |
| 2026-05-04 18:54 | 36.73513 | -76.86050 | 34014 ft | 414 kts | 220° |
| 2026-05-04 18:55 | 36.68666 | -76.89855 | 34028 ft | 413 kts | 220° |
| 2026-05-04 18:55 | 36.61398 | -76.95556 | 34027 ft | 413 kts | 220° |
| 2026-05-04 18:56 | 36.56546 | -76.99355 | 34026 ft | 413 kts | 220° |
| 2026-05-04 18:56 | 36.51672 | -77.03166 | 33990 ft | 412 kts | 220° |
| 2026-05-04 18:57 | 36.46837 | -77.06940 | 34039 ft | 411 kts | 220° |
| 2026-05-04 18:57 | 36.42005 | -77.10706 | 34038 ft | 411 kts | 220° |
| 2026-05-04 18:58 | 36.37138 | -77.14493 | 34036 ft | 411 kts | 220° |
| 2026-05-04 18:58 | 36.32333 | -77.18226 | 34034 ft | 410 kts | 220° |
| 2026-05-04 18:59 | 36.27481 | -77.21992 | 34015 ft | 409 kts | 219° |
| 2026-05-04 18:59 | 36.22638 | -77.25749 | 34038 ft | 415 kts | 219° |
| 2026-05-04 19:00 | 36.17762 | -77.29515 | 34045 ft | 414 kts | 219° |
| 2026-05-04 19:00 | 36.12851 | -77.33308 | 34029 ft | 414 kts | 219° |
| 2026-05-04 19:01 | 36.07959 | -77.37081 | 34036 ft | 414 kts | 219° |
| 2026-05-04 19:01 | 36.03077 | -77.40846 | 34047 ft | 415 kts | 218° |
| 2026-05-04 19:02 | 35.98171 | -77.44618 | 34054 ft | 416 kts | 218° |
| 2026-05-04 19:02 | 35.94071 | -77.47765 | 34058 ft | 417 kts | 218° |
| 2026-05-04 19:03 | 35.89133 | -77.51551 | 34060 ft | 417 kts | 218° |
| 2026-05-04 19:03 | 35.84199 | -77.55327 | 34049 ft | 417 kts | 218° |
| 2026-05-04 19:04 | 35.79281 | -77.59086 | 34062 ft | 416 kts | 218° |
| 2026-05-04 19:04 | 35.74367 | -77.62838 | 34057 ft | 417 kts | 218° |
| 2026-05-04 19:05 | 35.69425 | -77.66603 | 34062 ft | 416 kts | 218° |
| 2026-05-04 19:05 | 35.64504 | -77.70347 | 34058 ft | 416 kts | 218° |
| 2026-05-04 19:06 | 35.59572 | -77.74095 | 34066 ft | 416 kts | 218° |
| 2026-05-04 19:06 | 35.54658 | -77.77823 | 34051 ft | 416 kts | 218° |
| 2026-05-04 19:07 | 35.49747 | -77.81543 | 34058 ft | 416 kts | 218° |
| 2026-05-04 19:07 | 35.44830 | -77.85266 | 34046 ft | 416 kts | 218° |
| 2026-05-04 19:08 | 35.39886 | -77.89001 | 34058 ft | 416 kts | 218° |
| 2026-05-04 19:08 | 35.34979 | -77.92702 | 34078 ft | 416 kts | 218° |
| 2026-05-04 19:09 | 35.30041 | -77.96420 | 34064 ft | 416 kts | 217° |
| 2026-05-04 19:09 | 35.25113 | -78.00126 | 34071 ft | 417 kts | 217° |
| 2026-05-04 19:10 | 35.20166 | -78.03841 | 34076 ft | 417 kts | 217° |
| 2026-05-04 19:10 | 35.15212 | -78.07556 | 34065 ft | 417 kts | 217° |
| 2026-05-04 19:11 | 35.10264 | -78.11261 | 34075 ft | 417 kts | 217° |
| 2026-05-04 19:11 | 35.05338 | -78.14944 | 34076 ft | 417 kts | 217° |
| 2026-05-04 19:12 | 34.97920 | -78.20480 | 34076 ft | 417 kts | 217° |
| 2026-05-04 19:13 | 34.92981 | -78.24160 | 34076 ft | 417 kts | 217° |
| 2026-05-04 19:13 | 34.88034 | -78.27841 | 34076 ft | 415 kts | 217° |
| 2026-05-04 19:14 | 34.83102 | -78.31506 | 34072 ft | 415 kts | 217° |
| 2026-05-04 19:14 | 34.78159 | -78.35173 | 34065 ft | 415 kts | 217° |
| 2026-05-04 19:15 | 34.73244 | -78.38815 | 34075 ft | 415 kts | 217° |
| 2026-05-04 19:15 | 34.68318 | -78.42460 | 34063 ft | 414 kts | 217° |
| 2026-05-04 19:16 | 34.63412 | -78.46089 | 34083 ft | 414 kts | 217° |
| 2026-05-04 19:16 | 34.58509 | -78.49706 | 34084 ft | 414 kts | 217° |
| 2026-05-04 19:17 | 34.53569 | -78.53344 | 34086 ft | 414 kts | 217° |
| 2026-05-04 19:17 | 34.48661 | -78.56955 | 34085 ft | 414 kts | 217° |
| 2026-05-04 19:18 | 34.43735 | -78.60574 | 34090 ft | 414 kts | 216° |
| 2026-05-04 19:18 | 34.38799 | -78.64195 | 34096 ft | 414 kts | 216° |
| 2026-05-04 19:19 | 34.33846 | -78.67823 | 34104 ft | 415 kts | 216° |
| 2026-05-04 19:19 | 34.28908 | -78.71437 | 34100 ft | 416 kts | 216° |
| 2026-05-04 19:20 | 34.23943 | -78.75064 | 34084 ft | 416 kts | 216° |
| 2026-05-04 19:20 | 34.18991 | -78.78676 | 34090 ft | 416 kts | 216° |
| 2026-05-04 19:21 | 34.14059 | -78.82269 | 34090 ft | 416 kts | 216° |
| 2026-05-04 19:21 | 34.09101 | -78.85876 | 34094 ft | 416 kts | 216° |
| 2026-05-04 19:22 | 34.04162 | -78.89465 | 34100 ft | 415 kts | 216° |
| 2026-05-04 19:22 | 33.99201 | -78.93065 | 34104 ft | 415 kts | 216° |
| 2026-05-04 19:23 | 33.94261 | -78.96644 | 34106 ft | 415 kts | 216° |
| 2026-05-04 19:23 | 33.89333 | -79.00210 | 34107 ft | 415 kts | 216° |
| 2026-05-04 19:24 | 33.84368 | -79.03797 | 34105 ft | 415 kts | 216° |
| 2026-05-04 19:24 | 33.79448 | -79.07347 | 34098 ft | 415 kts | 216° |
| 2026-05-04 19:25 | 33.74462 | -79.10940 | 34122 ft | 416 kts | 216° |
| 2026-05-04 19:25 | 33.69502 | -79.14508 | 34128 ft | 415 kts | 216° |
| 2026-05-04 19:26 | 33.64572 | -79.18051 | 34117 ft | 416 kts | 216° |
| 2026-05-04 19:26 | 33.59590 | -79.21627 | 34120 ft | 416 kts | 216° |
| 2026-05-04 19:27 | 33.54640 | -79.25174 | 34111 ft | 412 kts | 216° |
| 2026-05-04 19:27 | 33.49701 | -79.28711 | 34114 ft | 417 kts | 216° |
| 2026-05-04 19:28 | 33.44706 | -79.32280 | 34117 ft | 415 kts | 216° |
| 2026-05-04 19:28 | 33.39744 | -79.35821 | 34120 ft | 415 kts | 216° |
| 2026-05-04 19:29 | 33.34797 | -79.39348 | 34120 ft | 415 kts | 216° |
| 2026-05-04 19:29 | 33.29809 | -79.42899 | 34123 ft | 415 kts | 216° |
| 2026-05-04 19:30 | 33.24830 | -79.46439 | 34107 ft | 416 kts | 216° |
| 2026-05-04 19:30 | 33.19883 | -79.49950 | 34113 ft | 415 kts | 217° |
| 2026-05-04 19:31 | 33.14908 | -79.53477 | 34109 ft | 415 kts | 217° |
| 2026-05-04 19:31 | 33.09948 | -79.56990 | 34104 ft | 416 kts | 217° |
| 2026-05-04 19:32 | 33.04988 | -79.60497 | 34101 ft | 416 kts | 217° |
| 2026-05-04 19:32 | 32.99986 | -79.64029 | 34105 ft | 416 kts | 217° |
| 2026-05-04 19:33 | 32.95042 | -79.67517 | 34102 ft | 416 kts | 217° |
| 2026-05-04 19:33 | 32.90051 | -79.71036 | 34121 ft | 416 kts | 217° |
| 2026-05-04 19:34 | 32.85066 | -79.74542 | 34123 ft | 416 kts | 217° |
| 2026-05-04 19:34 | 32.80086 | -79.78039 | 34123 ft | 416 kts | 216° |
| 2026-05-04 19:35 | 32.75095 | -79.81539 | 34115 ft | 411 kts | 217° |
| 2026-05-04 19:35 | 32.70147 | -79.85005 | 34130 ft | 416 kts | 217° |
| 2026-05-04 19:36 | 32.65177 | -79.88484 | 34131 ft | 415 kts | 217° |
| 2026-05-04 19:36 | 32.60181 | -79.91976 | 34128 ft | 415 kts | 217° |
| 2026-05-04 19:37 | 32.55202 | -79.95451 | 34128 ft | 415 kts | 217° |
| 2026-05-04 19:37 | 32.50231 | -79.98917 | 34125 ft | 415 kts | 217° |
| 2026-05-04 19:38 | 32.45247 | -80.02384 | 34119 ft | 415 kts | 217° |
| 2026-05-04 19:38 | 32.40269 | -80.05845 | 34113 ft | 415 kts | 217° |
| 2026-05-04 19:39 | 32.35305 | -80.09293 | 34111 ft | 414 kts | 217° |
| 2026-05-04 19:39 | 32.30334 | -80.12740 | 34106 ft | 414 kts | 217° |
| 2026-05-04 19:40 | 32.25358 | -80.16185 | 34106 ft | 414 kts | 217° |
| 2026-05-04 19:40 | 32.20395 | -80.19614 | 34109 ft | 413 kts | 218° |
| 2026-05-04 19:41 | 32.15428 | -80.23046 | 34107 ft | 413 kts | 218° |
| 2026-05-04 19:41 | 32.10477 | -80.26463 | 34107 ft | 413 kts | 218° |
| 2026-05-04 19:42 | 32.05530 | -80.29872 | 34102 ft | 412 kts | 217° |
| 2026-05-04 19:42 | 32.00585 | -80.33276 | 34097 ft | 412 kts | 217° |
| 2026-05-04 19:43 | 31.95613 | -80.36689 | 34103 ft | 411 kts | 218° |
| 2026-05-04 19:43 | 31.90704 | -80.40058 | 34102 ft | 410 kts | 218° |
| 2026-05-04 19:44 | 31.85751 | -80.43455 | 34100 ft | 409 kts | 218° |
| 2026-05-04 19:44 | 31.80836 | -80.46820 | 34097 ft | 409 kts | 218° |
| 2026-05-04 19:45 | 31.75935 | -80.50173 | 34093 ft | 409 kts | 218° |
| 2026-05-04 19:45 | 31.71024 | -80.53526 | 34073 ft | 408 kts | 219° |
| 2026-05-04 19:46 | 31.66118 | -80.56871 | 34092 ft | 407 kts | 219° |
| 2026-05-04 19:46 | 31.61207 | -80.60219 | 34092 ft | 408 kts | 219° |
| 2026-05-04 19:47 | 31.57140 | -80.62987 | 34087 ft | 408 kts | 219° |
| 2026-05-04 19:47 | 31.52247 | -80.66313 | 34090 ft | 408 kts | 219° |
| 2026-05-04 19:48 | 31.46525 | -80.70198 | 34094 ft | 408 kts | 219° |
| 2026-05-04 19:48 | 31.42422 | -80.72980 | 34078 ft | 408 kts | 218° |
| 2026-05-04 19:49 | 31.37494 | -80.76318 | 34077 ft | 409 kts | 218° |
| 2026-05-04 19:49 | 31.32567 | -80.79651 | 34085 ft | 409 kts | 218° |
| 2026-05-04 19:50 | 31.27639 | -80.82980 | 34089 ft | 410 kts | 218° |
| 2026-05-04 19:50 | 31.22701 | -80.86312 | 34103 ft | 411 kts | 218° |
| 2026-05-04 19:50 | 31.20218 | -80.87985 | 33913 ft | 407 kts | 218° |
| 2026-05-04 19:51 | 31.17785 | -80.89625 | 33231 ft | 408 kts | 218° |
| 2026-05-04 19:51 | 31.15304 | -80.91302 | 32359 ft | 411 kts | 218° |
| 2026-05-04 19:51 | 31.12806 | -80.92989 | 31407 ft | 415 kts | 217° |
| 2026-05-04 19:51 | 31.10316 | -80.94666 | 30640 ft | 417 kts | 217° |
| 2026-05-04 19:52 | 31.07810 | -80.96350 | 30293 ft | 419 kts | 217° |
| 2026-05-04 19:52 | 31.05254 | -80.98067 | 30139 ft | 422 kts | 217° |
| 2026-05-04 19:52 | 31.02740 | -80.99753 | 30097 ft | 421 kts | 217° |
| 2026-05-04 19:53 | 30.97630 | -81.03178 | 30097 ft | 421 kts | 217° |
| 2026-05-04 19:53 | 30.92586 | -81.06556 | 30077 ft | 422 kts | 217° |
| 2026-05-04 19:54 | 30.87462 | -81.09986 | 30107 ft | 423 kts | 217° |
| 2026-05-04 19:54 | 30.82364 | -81.13394 | 30105 ft | 423 kts | 217° |
| 2026-05-04 19:55 | 30.77282 | -81.16788 | 30107 ft | 423 kts | 217° |
| 2026-05-04 19:55 | 30.72184 | -81.20188 | 30111 ft | 423 kts | 217° |
| 2026-05-04 19:56 | 30.67085 | -81.23585 | 30117 ft | 423 kts | 217° |
| 2026-05-04 19:56 | 30.61818 | -81.26715 | 30120 ft | 435 kts | 206° |
| 2026-05-04 19:56 | 30.58817 | -81.27543 | 30122 ft | 446 kts | 195° |
| 2026-05-04 19:57 | 30.55696 | -81.27663 | 30123 ft | 459 kts | 183° |
| 2026-05-04 19:57 | 30.49348 | -81.26949 | 29861 ft | 457 kts | 182° |
| 2026-05-04 19:57 | 30.46182 | -81.26595 | 29301 ft | 453 kts | 182° |
| 2026-05-04 19:58 | 30.43041 | -81.26250 | 28664 ft | 449 kts | 182° |
| 2026-05-04 19:58 | 30.39937 | -81.25913 | 28012 ft | 445 kts | 182° |
| 2026-05-04 19:58 | 30.36874 | -81.25582 | 27366 ft | 440 kts | 182° |
| 2026-05-04 19:58 | 30.33861 | -81.25257 | 26739 ft | 436 kts | 181° |
| 2026-05-04 19:59 | 30.30848 | -81.24932 | 26145 ft | 431 kts | 181° |
| 2026-05-04 19:59 | 30.27893 | -81.24615 | 25521 ft | 427 kts | 181° |
| 2026-05-04 19:59 | 30.24934 | -81.24299 | 24918 ft | 423 kts | 181° |
| 2026-05-04 19:59 | 30.22039 | -81.23991 | 24337 ft | 420 kts | 181° |
| 2026-05-04 20:00 | 30.19135 | -81.23679 | 23772 ft | 416 kts | 180° |
| 2026-05-04 20:00 | 30.16249 | -81.23368 | 23117 ft | 412 kts | 180° |
| 2026-05-04 20:00 | 30.13434 | -81.23065 | 22483 ft | 408 kts | 180° |
| 2026-05-04 20:00 | 30.10608 | -81.22761 | 21859 ft | 404 kts | 180° |
| 2026-05-04 20:01 | 30.07841 | -81.22464 | 21241 ft | 400 kts | 180° |
| 2026-05-04 20:01 | 30.05060 | -81.22166 | 20630 ft | 397 kts | 180° |
| 2026-05-04 20:01 | 30.02348 | -81.21876 | 20117 ft | 391 kts | 179° |
| 2026-05-04 20:01 | 29.99669 | -81.21586 | 19830 ft | 380 kts | 179° |
| 2026-05-04 20:02 | 29.97040 | -81.21304 | 19322 ft | 376 kts | 179° |
| 2026-05-04 20:02 | 29.94466 | -81.21031 | 18791 ft | 373 kts | 179° |
| 2026-05-04 20:02 | 29.91875 | -81.20756 | 18254 ft | 371 kts | 179° |
| 2026-05-04 20:02 | 29.89332 | -81.20485 | 17676 ft | 368 kts | 179° |
| 2026-05-04 20:03 | 29.86801 | -81.20215 | 17104 ft | 365 kts | 178° |
| 2026-05-04 20:03 | 29.84253 | -81.19944 | 16539 ft | 363 kts | 178° |
| 2026-05-04 20:03 | 29.81765 | -81.19678 | 15987 ft | 360 kts | 178° |
| 2026-05-04 20:03 | 29.79275 | -81.19413 | 15455 ft | 358 kts | 178° |
| 2026-05-04 20:04 | 29.76827 | -81.19152 | 14941 ft | 356 kts | 178° |
| 2026-05-04 20:04 | 29.74359 | -81.18889 | 14428 ft | 353 kts | 177° |
| 2026-05-04 20:04 | 29.71924 | -81.18630 | 13913 ft | 352 kts | 177° |
| 2026-05-04 20:04 | 29.69483 | -81.18368 | 13374 ft | 349 kts | 177° |
| 2026-05-04 20:05 | 29.67078 | -81.18111 | 12874 ft | 345 kts | 177° |
| 2026-05-04 20:05 | 29.64725 | -81.17859 | 12386 ft | 342 kts | 177° |
| 2026-05-04 20:05 | 29.62385 | -81.17609 | 12117 ft | 337 kts | 178° |
| 2026-05-04 20:05 | 29.60007 | -81.17357 | 12043 ft | 341 kts | 177° |
| 2026-05-04 20:06 | 29.57677 | -81.17110 | 12028 ft | 339 kts | 177° |
| 2026-05-04 20:06 | 29.55314 | -81.16858 | 12029 ft | 340 kts | 177° |
| 2026-05-04 20:06 | 29.52973 | -81.16608 | 12014 ft | 340 kts | 177° |
| 2026-05-04 20:06 | 29.50602 | -81.16356 | 12025 ft | 340 kts | 177° |
| 2026-05-04 20:07 | 29.48246 | -81.16104 | 12031 ft | 340 kts | 177° |
| 2026-05-04 20:07 | 29.45902 | -81.15853 | 12017 ft | 340 kts | 177° |
| 2026-05-04 20:07 | 29.43540 | -81.15602 | 12032 ft | 340 kts | 177° |
| 2026-05-04 20:07 | 29.41201 | -81.15353 | 12029 ft | 340 kts | 177° |
| 2026-05-04 20:08 | 29.38844 | -81.15102 | 12035 ft | 340 kts | 178° |
| 2026-05-04 20:08 | 29.36482 | -81.14851 | 12053 ft | 340 kts | 178° |
| 2026-05-04 20:08 | 29.34120 | -81.14600 | 12042 ft | 340 kts | 178° |
| 2026-05-04 20:08 | 29.31779 | -81.14352 | 12047 ft | 340 kts | 178° |
| 2026-05-04 20:09 | 29.29419 | -81.14101 | 12034 ft | 340 kts | 178° |
| 2026-05-04 20:09 | 29.27090 | -81.13855 | 12035 ft | 340 kts | 177° |
| 2026-05-04 20:09 | 29.24725 | -81.13606 | 12045 ft | 340 kts | 177° |
| 2026-05-04 20:09 | 29.22359 | -81.13357 | 12049 ft | 340 kts | 178° |
| 2026-05-04 20:10 | 29.19992 | -81.13109 | 12009 ft | 340 kts | 177° |
| 2026-05-04 20:10 | 29.17665 | -81.12863 | 12005 ft | 340 kts | 177° |
| 2026-05-04 20:10 | 29.15298 | -81.12612 | 12019 ft | 341 kts | 178° |
| 2026-05-04 20:10 | 29.12952 | -81.12365 | 12015 ft | 341 kts | 178° |
| 2026-05-04 20:11 | 29.10587 | -81.12117 | 12017 ft | 341 kts | 177° |
| 2026-05-04 20:11 | 29.08219 | -81.11864 | 12012 ft | 341 kts | 176° |
| 2026-05-04 20:11 | 29.05900 | -81.11378 | 12006 ft | 341 kts | 167° |
| 2026-05-04 20:11 | 29.03689 | -81.10558 | 12018 ft | 324 kts | 163° |
| 2026-05-04 20:12 | 29.01617 | -81.09758 | 12023 ft | 308 kts | 164° |
| 2026-05-04 20:12 | 28.99613 | -81.08993 | 12025 ft | 307 kts | 164° |
| 2026-05-04 20:12 | 28.97553 | -81.08267 | 12007 ft | 309 kts | 170° |
| 2026-05-04 20:12 | 28.95439 | -81.07902 | 11916 ft | 303 kts | 178° |
| 2026-05-04 20:13 | 28.93355 | -81.07671 | 11602 ft | 301 kts | 177° |
| 2026-05-04 20:13 | 28.91280 | -81.07431 | 11210 ft | 300 kts | 177° |
| 2026-05-04 20:13 | 28.89206 | -81.07251 | 10841 ft | 296 kts | 184° |
| 2026-05-04 20:13 | 28.87171 | -81.07535 | 10455 ft | 290 kts | 197° |
| 2026-05-04 20:14 | 28.85298 | -81.08259 | 10145 ft | 283 kts | 204° |
| 2026-05-04 20:14 | 28.83444 | -81.09053 | 10040 ft | 286 kts | 203° |
| 2026-05-04 20:14 | 28.81592 | -81.09826 | 9998 ft | 286 kts | 203° |
| 2026-05-04 20:14 | 28.79713 | -81.10605 | 9994 ft | 286 kts | 202° |
| 2026-05-04 20:15 | 28.77856 | -81.11373 | 9993 ft | 286 kts | 202° |
| 2026-05-04 20:15 | 28.75981 | -81.12150 | 9997 ft | 286 kts | 203° |
| 2026-05-04 20:15 | 28.74094 | -81.12933 | 9998 ft | 286 kts | 203° |
| 2026-05-04 20:15 | 28.72237 | -81.13705 | 9984 ft | 285 kts | 203° |
| 2026-05-04 20:16 | 28.70376 | -81.14451 | 9934 ft | 278 kts | 199° |
| 2026-05-04 20:16 | 28.68534 | -81.14948 | 9837 ft | 268 kts | 196° |
| 2026-05-04 20:16 | 28.66726 | -81.15410 | 9565 ft | 263 kts | 196° |
| 2026-05-04 20:16 | 28.64964 | -81.15868 | 9212 ft | 261 kts | 196° |
| 2026-05-04 20:17 | 28.63214 | -81.16324 | 8877 ft | 259 kts | 196° |
| 2026-05-04 20:17 | 28.61454 | -81.16784 | 8634 ft | 252 kts | 196° |
| 2026-05-04 20:17 | 28.59799 | -81.17215 | 8530 ft | 241 kts | 195° |
| 2026-05-04 20:17 | 28.58185 | -81.17633 | 8347 ft | 234 kts | 196° |
| 2026-05-04 20:18 | 28.56613 | -81.18042 | 8066 ft | 233 kts | 195° |
| 2026-05-04 20:18 | 28.55023 | -81.18456 | 7746 ft | 233 kts | 195° |
| 2026-05-04 20:18 | 28.53449 | -81.18636 | 7751 ft | 218 kts | 181° |
| 2026-05-04 20:18 | 28.51830 | -81.18626 | 7809 ft | 241 kts | 184° |
| 2026-05-04 20:19 | 28.50171 | -81.18639 | 7749 ft | 238 kts | 183° |
| 2026-05-04 20:19 | 28.48520 | -81.18636 | 7585 ft | 234 kts | 183° |
| 2026-05-04 20:19 | 28.46908 | -81.18641 | 7297 ft | 234 kts | 183° |
| 2026-05-04 20:19 | 28.45292 | -81.18667 | 7020 ft | 233 kts | 182° |
| 2026-05-04 20:20 | 28.43662 | -81.18711 | 6719 ft | 233 kts | 183° |
| 2026-05-04 20:20 | 28.42051 | -81.18761 | 6459 ft | 231 kts | 183° |
| 2026-05-04 20:20 | 28.40457 | -81.18817 | 6241 ft | 227 kts | 183° |
| 2026-05-04 20:20 | 28.38922 | -81.18870 | 6155 ft | 217 kts | 183° |
| 2026-05-04 20:21 | 28.37450 | -81.18929 | 6066 ft | 205 kts | 183° |
| 2026-05-04 20:21 | 28.36057 | -81.18976 | 5936 ft | 197 kts | 183° |
| 2026-05-04 20:21 | 28.33379 | -81.19057 | 5440 ft | 189 kts | 183° |
| 2026-05-04 20:22 | 28.32053 | -81.19107 | 5005 ft | 193 kts | 183° |
| 2026-05-04 20:22 | 28.30706 | -81.19169 | 4591 ft | 194 kts | 182° |
| 2026-05-04 20:22 | 28.29349 | -81.19268 | 4198 ft | 194 kts | 182° |
| 2026-05-04 20:22 | 28.27996 | -81.19415 | 3796 ft | 196 kts | 183° |
| 2026-05-04 20:23 | 28.26677 | -81.19576 | 3615 ft | 186 kts | 183° |
| 2026-05-04 20:23 | 28.25412 | -81.19861 | 3368 ft | 188 kts | 201° |
| 2026-05-04 20:23 | 28.24473 | -81.20883 | 3079 ft | 193 kts | 244° |
| 2026-05-04 20:23 | 28.24334 | -81.22357 | 3002 ft | 196 kts | 286° |
| 2026-05-04 20:24 | 28.24859 | -81.23781 | 2995 ft | 194 kts | 302° |
| 2026-05-04 20:24 | 28.25519 | -81.25091 | 2989 ft | 187 kts | 303° |
| 2026-05-04 20:24 | 28.26131 | -81.26345 | 3002 ft | 181 kts | 301° |
| 2026-05-04 20:24 | 28.26862 | -81.27479 | 2923 ft | 174 kts | 328° |
| 2026-05-04 20:25 | 28.27902 | -81.27998 | 2736 ft | 159 kts | 353° |
| 2026-05-04 20:25 | 28.28975 | -81.28122 | 2404 ft | 152 kts | 5° |
| 2026-05-04 20:25 | 28.30039 | -81.28109 | 1909 ft | 158 kts | 6° |
| 2026-05-04 20:25 | 28.31120 | -81.28125 | 1650 ft | 150 kts | 5° |
| 2026-05-04 20:26 | 28.32202 | -81.28129 | 1594 ft | 160 kts | 5° |
| 2026-05-04 20:26 | 28.33303 | -81.28146 | 1621 ft | 151 kts | 5° |
| 2026-05-04 20:26 | 28.34317 | -81.28158 | 1596 ft | 143 kts | 7° |
| 2026-05-04 20:26 | 28.35334 | -81.28166 | 1587 ft | 148 kts | 7° |
| 2026-05-04 20:27 | 28.36379 | -81.28225 | 1373 ft | 146 kts | 5° |
| 2026-05-04 20:27 | 28.37415 | -81.28188 | 1073 ft | 153 kts | 7° |
| 2026-05-04 20:27 | 28.38443 | -81.28223 | 772 ft | 141 kts | 10° |
| 2026-05-04 20:27 | 28.39383 | -81.28200 | 593 ft | 133 kts | 4° |
| 2026-05-04 20:28 | 28.40308 | -81.28206 | 475 ft | 132 kts | 3° |
| 2026-05-04 20:28 | 28.41224 | -81.28227 | 259 ft | 127 kts | 3° |
| 2026-05-04 20:28 | 28.42066 | -81.28237 | 115 ft | 117 kts | 8° |
| 2026-05-04 20:28 | 28.42736 | -81.28224 | 104 ft | 67 kts | 359° |
| 2026-05-04 20:29 | 28.43102 | -81.28246 | 99 ft | 50 kts | 359° |
| 2026-05-04 20:29 | 28.43418 | -81.28256 | 101 ft | 30 kts | 345° |
| 2026-05-04 20:29 | 28.43530 | -81.28327 | 101 ft | 0 kts | 303° |
| 2026-05-04 20:30 | 28.43532 | -81.28330 | 101 ft | 2 kts | 302° |
| 2026-05-04 20:30 | 28.43538 | -81.28349 | 103 ft | 4 kts | 281° |
| 2026-05-04 20:30 | 28.43511 | -81.28375 | 102 ft | 10 kts | 197° |
| 2026-05-04 20:30 | 28.43411 | -81.28376 | 99 ft | 18 kts | 176° |
| 2026-05-04 20:31 | 28.43268 | -81.28372 | 98 ft | 22 kts | 179° |
| 2026-05-04 20:31 | 28.43108 | -81.28369 | 100 ft | 24 kts | 179° |
| 2026-05-04 20:31 | 28.42931 | -81.28368 | 100 ft | 27 kts | 179° |
| 2026-05-04 20:31 | 28.42750 | -81.28366 | 105 ft | 21 kts | 180° |
| 2026-05-04 20:32 | 28.42602 | -81.28364 | 107 ft | 21 kts | 179° |
| 2026-05-04 20:32 | 28.42493 | -81.28450 | 106 ft | 23 kts | 248° |
| 2026-05-04 20:32 | 28.42440 | -81.28627 | 105 ft | 25 kts | 252° |
| 2026-05-04 20:32 | 28.42378 | -81.28823 | 107 ft | 28 kts | 250° |
| 2026-05-04 20:33 | 28.42314 | -81.29039 | 107 ft | 25 kts | 251° |
| 2026-05-04 20:33 | 28.42291 | -81.29188 | 107 ft | 19 kts | 264° |
| 2026-05-04 20:33 | 28.42286 | -81.29366 | 104 ft | 25 kts | 268° |
| 2026-05-04 20:33 | 28.42283 | -81.29582 | 98 ft | 26 kts | 270° |
| 2026-05-04 20:34 | 28.42292 | -81.29759 | 101 ft | 19 kts | 300° |
| 2026-05-04 20:34 | 28.42374 | -81.29792 | 102 ft | 21 kts | 358° |
| 2026-05-04 20:34 | 28.42591 | -81.29795 | 102 ft | 26 kts | 360° |
| 2026-05-04 20:34 | 28.42710 | -81.29797 | 103 ft | 24 kts | 358° |
| 2026-05-04 20:35 | 28.42807 | -81.29796 | 101 ft | 1 kts | 2° |
| 2026-05-04 20:35 | 28.42835 | -81.29794 | 103 ft | 7 kts | 1° |
| 2026-05-04 20:35 | 28.42900 | -81.29815 | 102 ft | 13 kts | 319° |
| 2026-05-04 20:35 | 28.42939 | -81.29910 | 101 ft | 12 kts | 292° |
| 2026-05-04 20:36 | 28.42940 | -81.29976 | 101 ft | 6 kts | 227° |
| 2026-05-04 20:36 | 28.42911 | -81.30004 | 101 ft | 1 kts | 220° |
| 2026-05-04 20:36 | 28.42900 | -81.30015 | 103 ft | 0 kts | 220° |